CheckWX is a tool to help pilots better visualize weather data.  It is not intended as a substitute for an official pre-flight weather briefing.

18:26:57 UTC

KBRO METAR
Brownsville / South Padre Island International Airport
Brownsville, Texas, USA
Current

34 mins ago

KBRO 241753Z 17018G25KT 10SM BKN034 OVC043 29/21 A2980 RMK AO2 PK WND 17028/1731 SLP090 T02940211 10300 20233 58012
Observed
Apr-24 @ 17:53 UTC
Wind
  • 170° at 18 KTS
  • Gusting to 25 KTS
Visibility
10 SM
Flight Rules
VFR
Cloud Levels
  • Broken at 3,400' AGL
  • Overcast at 4,300' AGL
Temperature
29°C / 84°F
Dewpoint
21°C / 70°F
Heat Index
31°C / 88°F
Humidity
62%
Altimeter
29.8" Hg
Pressure
1009.12 hPa
Previous

2 hours ago

KBRO 241653Z 15016G26KT 10SM BKN032 29/22 A2982 RMK AO2 PK WND 16026/1645 SLP096 T02940217 $
Observed
Apr-24 @ 16:53 UTC
Wind
  • 150° at 16 KTS
  • Gusting to 26 KTS
Visibility
10 SM
Flight Rules
VFR
Cloud Levels
  • Broken at 3,200' AGL
Temperature
29°C / 84°F
Dewpoint
22°C / 72°F
Heat Index
32°C / 89°F
Humidity
66%
Altimeter
29.82" Hg
Pressure
1009.82 hPa
Previous

3 hours ago

KBRO 241553Z 15018G24KT 10SM BKN024 BKN029 29/22 A2983 RMK AO2 PK WND 17026/1456 SLP101 T02890222
Observed
Apr-24 @ 15:53 UTC
Wind
  • 150° at 18 KTS
  • Gusting to 24 KTS
Visibility
10 SM
Flight Rules
MVFR
Cloud Levels
  • Broken at 2,400' AGL
  • Broken at 2,900' AGL
Temperature
29°C / 84°F
Dewpoint
22°C / 72°F
Heat Index
32°C / 89°F
Humidity
66%
Altimeter
29.83" Hg
Pressure
1010.12 hPa